Aviation Digital Data Service (ADDS)

Output produced by METARs form (0903 UTC 24 March 2019)
found at http://www.aviationweather.gov/metar/data/
 
METAR text: LFRJ 240830Z AUTO 36004KT 2600 BR SCT007 BKN034 OVC043 08/08 Q1031
Conditions at: LFRJ (LANDIVISIAU (NAV, FR) observed 0830 UTC 24 March 2019
Temperature: 8.0°C (46°F)
Dewpoint: 8.0°C (46°F) [RH = 100%]
Pressure (altimeter): 30.44 inches Hg (1031.0 mb)
Winds: from the N (360 degrees) at 5 MPH (4 knots; 2.1 m/s)
Visibility: 1.62 miles (2.61 km)
Ceiling: 3400 feet AGL
Clouds: scattered clouds at 700 feet AGL
broken clouds at 3400 feet AGL
overcast cloud deck at 4300 feet AGL
Weather: BR  (mist)

METAR text: LFRJ 240800Z AUTO 03004KT 2600 BR FEW006 OVC035 07/07 Q1031
Conditions at: LFRJ (LANDIVISIAU (NAV, FR) observed 0800 UTC 24 March 2019
Temperature: 7.0°C (45°F)
Dewpoint: 7.0°C (45°F) [RH = 100%]
Pressure (altimeter): 30.44 inches Hg (1031.0 mb)
Winds: from the NNE (30 degrees) at 5 MPH (4 knots; 2.1 m/s)
Visibility: 1.62 miles (2.61 km)
Ceiling: 3500 feet AGL
Clouds: few clouds at 600 feet AGL
overcast cloud deck at 3500 feet AGL
Weather: BR  (mist)

METAR text: LFRJ 240730Z AUTO 01003KT 2100 BR FEW008 OVC037 07/07 Q1031
Conditions at: LFRJ (LANDIVISIAU (NAV, FR) observed 0730 UTC 24 March 2019
Temperature: 7.0°C (45°F)
Dewpoint: 7.0°C (45°F) [RH = 100%]
Pressure (altimeter): 30.44 inches Hg (1031.0 mb)
Winds: from the N (10 degrees) at 3 MPH (3 knots; 1.5 m/s)
Visibility: 1.30 miles (2.09 km)
Ceiling: 3700 feet AGL
Clouds: few clouds at 800 feet AGL
overcast cloud deck at 3700 feet AGL
Weather: BR  (mist)

METAR text: LFRJ 240700Z AUTO VRB02KT 1800 BR OVC036 06/06 Q1030
Conditions at: LFRJ (LANDIVISIAU (NAV, FR) observed 0700 UTC 24 March 2019
Temperature: 6.0°C (43°F)
Dewpoint: 6.0°C (43°F) [RH = 100%]
Pressure (altimeter): 30.41 inches Hg (1030.0 mb)
Winds: variable direction winds at 2 MPH (2 knots; 1.0 m/s)
Visibility: 1.12 miles (1.80 km)
Ceiling: 3600 feet AGL
Clouds: overcast cloud deck at 3600 feet AGL
Weather: BR  (mist)

METAR text: LFRJ 240630Z AUTO VRB02KT 1800 BR BKN002 OVC036 06/06 Q1030
Conditions at: LFRJ (LANDIVISIAU (NAV, FR) observed 0630 UTC 24 March 2019
Temperature: 6.0°C (43°F)
Dewpoint: 6.0°C (43°F) [RH = 100%]
Pressure (altimeter): 30.41 inches Hg (1030.0 mb)
Winds: variable direction winds at 2 MPH (2 knots; 1.0 m/s)
Visibility: 1.12 miles (1.80 km)
Ceiling: 200 feet AGL
Clouds: broken clouds at 200 feet AGL
overcast cloud deck at 3600 feet AGL
Weather: BR  (mist)

METAR text: LFRJ 240600Z AUTO 10003KT 2000 BR VV/// 06/06 Q1029
Conditions at: LFRJ (LANDIVISIAU (NAV, FR) observed 0600 UTC 24 March 2019
Temperature: 6.0°C (43°F)
Dewpoint: 6.0°C (43°F) [RH = 100%]
Pressure (altimeter): 30.38 inches Hg (1029.0 mb)
Winds: from the E (100 degrees) at 3 MPH (3 knots; 1.5 m/s)
Visibility: 1.24 miles (2.00 km)
Ceiling: indefinite ceiling with vertical visibility of 0 feet AGL
Clouds: obscured sky
Weather: BR  (mist)

METAR text: LFRJ 240530Z AUTO 11004KT 080V140 1100 0650 R26/P2000 R08/1300D BCFG VV/// 06/06 Q1029
Conditions at: LFRJ (LANDIVISIAU (NAV, FR) observed 0530 UTC 24 March 2019
Temperature: 6.0°C (43°F)
Dewpoint: 6.0°C (43°F) [RH = 100%]
Pressure (altimeter): 30.38 inches Hg (1029.0 mb)
Winds: from the ESE (110 degrees) at 5 MPH (4 knots; 2.1 m/s)
Visibility: 0.68 miles (1.09 km)
Ceiling: indefinite ceiling with vertical visibility of 0 feet AGL
Clouds: obscured sky
Weather: BCFG  (patches of fog)

METAR text: LFRJ 240500Z AUTO 09007KT 0750 0600 R26/1100U R08/1100U FG VV/// 06/06 Q1029
Conditions at: LFRJ (LANDIVISIAU (NAV, FR) observed 0500 UTC 24 March 2019
Temperature: 6.0°C (43°F)
Dewpoint: 6.0°C (43°F) [RH = 100%]
Pressure (altimeter): 30.38 inches Hg (1029.0 mb)
Winds: from the E (90 degrees) at 8 MPH (7 knots; 3.6 m/s)
Visibility: 0.47 miles (0.76 km)
Ceiling: indefinite ceiling with vertical visibility of 0 feet AGL
Clouds: obscured sky
Weather: FG  (fog)

METAR text: LFRJ 240430Z AUTO 06007KT 0450 0400 R26/0900U R08/0650U FG VV/// 06/06 Q1030
Conditions at: LFRJ (LANDIVISIAU (NAV, FR) observed 0430 UTC 24 March 2019
Temperature: 6.0°C (43°F)
Dewpoint: 6.0°C (43°F) [RH = 100%]
Pressure (altimeter): 30.41 inches Hg (1030.0 mb)
Winds: from the ENE (60 degrees) at 8 MPH (7 knots; 3.6 m/s)
Visibility: 0.28 miles (0.45 km)
Ceiling: indefinite ceiling with vertical visibility of 0 feet AGL
Clouds: obscured sky
Weather: FG  (fog)

METAR text: LFRJ 240400Z AUTO 08006KT 040V100 0350 0250 R26/0450N R08/0400N FG VV/// 06/06 Q1030
Conditions at: LFRJ (LANDIVISIAU (NAV, FR) observed 0400 UTC 24 March 2019
Temperature: 6.0°C (43°F)
Dewpoint: 6.0°C (43°F) [RH = 100%]
Pressure (altimeter): 30.41 inches Hg (1030.0 mb)
Winds: from the E (80 degrees) at 7 MPH (6 knots; 3.1 m/s)
Visibility: 0.22 miles (0.35 km)
Ceiling: indefinite ceiling with vertical visibility of 0 feet AGL
Clouds: obscured sky
Weather: FG  (fog)

METAR text: LFRJ 240330Z AUTO 05006KT 0250 R26/0375N R08/0325N FG VV/// 06/06 Q1030
Conditions at: LFRJ (LANDIVISIAU (NAV, FR) observed 0330 UTC 24 March 2019
Temperature: 6.0°C (43°F)
Dewpoint: 6.0°C (43°F) [RH = 100%]
Pressure (altimeter): 30.41 inches Hg (1030.0 mb)
Winds: from the NE (50 degrees) at 7 MPH (6 knots; 3.1 m/s)
Visibility: 0.16 miles (0.26 km)
Ceiling: indefinite ceiling with vertical visibility of 0 feet AGL
Clouds: obscured sky
Weather: FG  (fog)

METAR text: LFRJ 240300Z AUTO 06005KT 0300 0250 R26/0400N R08/0400N FG VV/// 06/06 Q1029
Conditions at: LFRJ (LANDIVISIAU (NAV, FR) observed 0300 UTC 24 March 2019
Temperature: 6.0°C (43°F)
Dewpoint: 6.0°C (43°F) [RH = 100%]
Pressure (altimeter): 30.38 inches Hg (1029.0 mb)
Winds: from the ENE (60 degrees) at 6 MPH (5 knots; 2.6 m/s)
Visibility: 0.19 miles (0.31 km)
Ceiling: indefinite ceiling with vertical visibility of 0 feet AGL
Clouds: obscured sky
Weather: FG  (fog)

METAR text: LFRJ 240230Z AUTO 06004KT 1800 0550 R26/P2000 R08/0650N BCFG SCT002 OVC058 06/06 Q1029
Conditions at: LFRJ (LANDIVISIAU (NAV, FR) observed 0230 UTC 24 March 2019
Temperature: 6.0°C (43°F)
Dewpoint: 6.0°C (43°F) [RH = 100%]
Pressure (altimeter): 30.38 inches Hg (1029.0 mb)
Winds: from the ENE (60 degrees) at 5 MPH (4 knots; 2.1 m/s)
Visibility: 1.12 miles (1.80 km)
Ceiling: 5800 feet AGL
Clouds: scattered clouds at 200 feet AGL
overcast cloud deck at 5800 feet AGL
Weather: BCFG  (patches of fog)

METAR text: LFRJ 240200Z AUTO 06005KT 2900 BR NSC 07/06 Q1029
Conditions at: LFRJ (LANDIVISIAU (NAV, FR) observed 0200 UTC 24 March 2019
Temperature: 7.0°C (45°F)
Dewpoint: 6.0°C (43°F) [RH = 93%]
Pressure (altimeter): 30.38 inches Hg (1029.0 mb)
Winds: from the ENE (60 degrees) at 6 MPH (5 knots; 2.6 m/s)
Visibility: 1.80 miles (2.90 km)
Ceiling: at least 12,000 feet AGL
Clouds: sky clear below 12,000 feet AGL
Weather: BR  (mist)

METAR text: LFRJ 240130Z AUTO 06004KT 3900 BR FEW047 BKN058 07/06 Q1029
Conditions at: LFRJ (LANDIVISIAU (NAV, FR) observed 0130 UTC 24 March 2019
Temperature: 7.0°C (45°F)
Dewpoint: 6.0°C (43°F) [RH = 93%]
Pressure (altimeter): 30.38 inches Hg (1029.0 mb)
Winds: from the ENE (60 degrees) at 5 MPH (4 knots; 2.1 m/s)
Visibility: 2.42 miles (3.89 km)
Ceiling: 5800 feet AGL
Clouds: few clouds at 4700 feet AGL
broken clouds at 5800 feet AGL
Weather: BR  (mist)

METAR text: LFRJ 240100Z AUTO 08005KT 4500 BR NSC 07/07 Q1029
Conditions at: LFRJ (LANDIVISIAU (NAV, FR) observed 0100 UTC 24 March 2019
Temperature: 7.0°C (45°F)
Dewpoint: 7.0°C (45°F) [RH = 100%]
Pressure (altimeter): 30.38 inches Hg (1029.0 mb)
Winds: from the E (80 degrees) at 6 MPH (5 knots; 2.6 m/s)
Visibility: 2.80 miles (4.51 km)
Ceiling: at least 12,000 feet AGL
Clouds: sky clear below 12,000 feet AGL
Weather: BR  (mist)

METAR text: LFRJ 240030Z AUTO 08007KT 4900 BR NSC 08/07 Q1029
Conditions at: LFRJ (LANDIVISIAU (NAV, FR) observed 0030 UTC 24 March 2019
Temperature: 8.0°C (46°F)
Dewpoint: 7.0°C (45°F) [RH = 93%]
Pressure (altimeter): 30.38 inches Hg (1029.0 mb)
Winds: from the E (80 degrees) at 8 MPH (7 knots; 3.6 m/s)
Visibility: 3 miles ( 5 km)
Ceiling: at least 12,000 feet AGL
Clouds: sky clear below 12,000 feet AGL
Weather: BR  (mist)

METAR text: LFRJ 240000Z AUTO 07006KT 4900 BR NSC 08/07 Q1029
Conditions at: LFRJ (LANDIVISIAU (NAV, FR) observed 0000 UTC 24 March 2019
Temperature: 8.0°C (46°F)
Dewpoint: 7.0°C (45°F) [RH = 93%]
Pressure (altimeter): 30.38 inches Hg (1029.0 mb)
Winds: from the ENE (70 degrees) at 7 MPH (6 knots; 3.1 m/s)
Visibility: 3 miles ( 5 km)
Ceiling: at least 12,000 feet AGL
Clouds: sky clear below 12,000 feet AGL
Weather: BR  (mist)

METAR text: LFRJ 232330Z AUTO 07007KT 5000 BR NSC 08/07 Q1029
Conditions at: LFRJ (LANDIVISIAU (NAV, FR) observed 2330 UTC 23 March 2019
Temperature: 8.0°C (46°F)
Dewpoint: 7.0°C (45°F) [RH = 93%]
Pressure (altimeter): 30.38 inches Hg (1029.0 mb)
Winds: from the ENE (70 degrees) at 8 MPH (7 knots; 3.6 m/s)
Visibility: 3 miles ( 5 km)
Ceiling: at least 12,000 feet AGL
Clouds: sky clear below 12,000 feet AGL
Weather: BR  (mist)

METAR text: LFRJ 232300Z AUTO 07007KT 5000 BR FEW045 OVC058 08/08 Q1029
Conditions at: LFRJ (LANDIVISIAU (NAV, FR) observed 2300 UTC 23 March 2019
Temperature: 8.0°C (46°F)
Dewpoint: 8.0°C (46°F) [RH = 100%]
Pressure (altimeter): 30.38 inches Hg (1029.0 mb)
Winds: from the ENE (70 degrees) at 8 MPH (7 knots; 3.6 m/s)
Visibility: 3 miles ( 5 km)
Ceiling: 5800 feet AGL
Clouds: few clouds at 4500 feet AGL
overcast cloud deck at 5800 feet AGL
Weather: BR  (mist)

METAR text: LFRJ 232230Z AUTO 07007KT 5000 BR FEW046 OVC056 09/07 Q1029
Conditions at: LFRJ (LANDIVISIAU (NAV, FR) observed 2230 UTC 23 March 2019
Temperature: 9.0°C (48°F)
Dewpoint: 7.0°C (45°F) [RH = 87%]
Pressure (altimeter): 30.38 inches Hg (1029.0 mb)
Winds: from the ENE (70 degrees) at 8 MPH (7 knots; 3.6 m/s)
Visibility: 3 miles ( 5 km)
Ceiling: 5600 feet AGL
Clouds: few clouds at 4600 feet AGL
overcast cloud deck at 5600 feet AGL
Weather: BR  (mist)

METAR text: LFRJ 232200Z AUTO 07006KT 5000 BR FEW046 OVC058 09/08 Q1029
Conditions at: LFRJ (LANDIVISIAU (NAV, FR) observed 2200 UTC 23 March 2019
Temperature: 9.0°C (48°F)
Dewpoint: 8.0°C (46°F) [RH = 93%]
Pressure (altimeter): 30.38 inches Hg (1029.0 mb)
Winds: from the ENE (70 degrees) at 7 MPH (6 knots; 3.1 m/s)
Visibility: 3 miles ( 5 km)
Ceiling: 5800 feet AGL
Clouds: few clouds at 4600 feet AGL
overcast cloud deck at 5800 feet AGL
Weather: BR  (mist)

METAR text: LFRJ 232130Z AUTO 07005KT 5000 BR FEW043 BKN058 09/08 Q1030
Conditions at: LFRJ (LANDIVISIAU (NAV, FR) observed 2130 UTC 23 March 2019
Temperature: 9.0°C (48°F)
Dewpoint: 8.0°C (46°F) [RH = 93%]
Pressure (altimeter): 30.41 inches Hg (1030.0 mb)
Winds: from the ENE (70 degrees) at 6 MPH (5 knots; 2.6 m/s)
Visibility: 3 miles ( 5 km)
Ceiling: 5800 feet AGL
Clouds: few clouds at 4300 feet AGL
broken clouds at 5800 feet AGL
Weather: BR  (mist)

METAR text: LFRJ 232100Z AUTO 06005KT 6000 NSC 09/07 Q1030
Conditions at: LFRJ (LANDIVISIAU (NAV, FR) observed 2100 UTC 23 March 2019
Temperature: 9.0°C (48°F)
Dewpoint: 7.0°C (45°F) [RH = 87%]
Pressure (altimeter): 30.41 inches Hg (1030.0 mb)
Winds: from the ENE (60 degrees) at 6 MPH (5 knots; 2.6 m/s)
Visibility: 4 miles ( 6 km)
Ceiling: at least 12,000 feet AGL
Clouds: sky clear below 12,000 feet AGL
Weather: no significant weather observed at this time

METAR text: LFRJ 232030Z AUTO 06004KT 6000 SCT044 BKN058 08/07 Q1029
Conditions at: LFRJ (LANDIVISIAU (NAV, FR) observed 2030 UTC 23 March 2019
Temperature: 8.0°C (46°F)
Dewpoint: 7.0°C (45°F) [RH = 93%]
Pressure (altimeter): 30.38 inches Hg (1029.0 mb)
Winds: from the ENE (60 degrees) at 5 MPH (4 knots; 2.1 m/s)
Visibility: 4 miles ( 6 km)
Ceiling: 5800 feet AGL
Clouds: scattered clouds at 4400 feet AGL
broken clouds at 5800 feet AGL
Weather: no significant weather observed at this time

METAR text: LFRJ 232000Z AUTO 06005KT 8000 SCT044 BKN058 09/07 Q1029
Conditions at: LFRJ (LANDIVISIAU (NAV, FR) observed 2000 UTC 23 March 2019
Temperature: 9.0°C (48°F)
Dewpoint: 7.0°C (45°F) [RH = 87%]
Pressure (altimeter): 30.38 inches Hg (1029.0 mb)
Winds: from the ENE (60 degrees) at 6 MPH (5 knots; 2.6 m/s)
Visibility: 5 miles ( 8 km)
Ceiling: 5800 feet AGL
Clouds: scattered clouds at 4400 feet AGL
broken clouds at 5800 feet AGL
Weather: no significant weather observed at this time

METAR text: LFRJ 231930Z AUTO 06007KT 8000 SCT048 BKN060 09/07 Q1029
Conditions at: LFRJ (LANDIVISIAU (NAV, FR) observed 1930 UTC 23 March 2019
Temperature: 9.0°C (48°F)
Dewpoint: 7.0°C (45°F) [RH = 87%]
Pressure (altimeter): 30.38 inches Hg (1029.0 mb)
Winds: from the ENE (60 degrees) at 8 MPH (7 knots; 3.6 m/s)
Visibility: 5 miles ( 8 km)
Ceiling: 6000 feet AGL
Clouds: scattered clouds at 4800 feet AGL
broken clouds at 6000 feet AGL
Weather: no significant weather observed at this time

METAR text: LFRJ 231900Z AUTO 05008KT 9000 NSC 09/07 Q1029
Conditions at: LFRJ (LANDIVISIAU (NAV, FR) observed 1900 UTC 23 March 2019
Temperature: 9.0°C (48°F)
Dewpoint: 7.0°C (45°F) [RH = 87%]
Pressure (altimeter): 30.38 inches Hg (1029.0 mb)
Winds: from the NE (50 degrees) at 9 MPH (8 knots; 4.1 m/s)
Visibility: 6 miles ( 9 km)
Ceiling: at least 12,000 feet AGL
Clouds: sky clear below 12,000 feet AGL
Weather: no significant weather observed at this time

METAR text: LFRJ 231830Z AUTO 06009KT CAVOK 09/07 Q1029
Conditions at: LFRJ (LANDIVISIAU (NAV, FR) observed 1830 UTC 23 March 2019
Temperature: 9.0°C (48°F)
Dewpoint: 7.0°C (45°F) [RH = 87%]
Pressure (altimeter): 30.38 inches Hg (1029.0 mb)
Winds: from the ENE (60 degrees) at 10 MPH (9 knots; 4.6 m/s)
Visibility: 6 or more miles (10+ km)
Ceiling: ceiling and visibility are OK
Clouds: unknown
Weather: no significant weather observed at this time

METAR text: LFRJ 231800Z AUTO 05010KT CAVOK 10/07 Q1028
Conditions at: LFRJ (LANDIVISIAU (NAV, FR) observed 1800 UTC 23 March 2019
Temperature: 10.0°C (50°F)
Dewpoint: 7.0°C (45°F) [RH = 82%]
Pressure (altimeter): 30.35 inches Hg (1028.0 mb)
Winds: from the NE (50 degrees) at 12 MPH (10 knots; 5.1 m/s)
Visibility: 6 or more miles (10+ km)
Ceiling: ceiling and visibility are OK
Clouds: unknown
Weather: no significant weather observed at this time

METAR text: LFRJ 231730Z AUTO 05011KT CAVOK 11/07 Q1028
Conditions at: LFRJ (LANDIVISIAU (NAV, FR) observed 1730 UTC 23 March 2019
Temperature: 11.0°C (52°F)
Dewpoint: 7.0°C (45°F) [RH = 76%]
Pressure (altimeter): 30.35 inches Hg (1028.0 mb)
Winds: from the NE (50 degrees) at 13 MPH (11 knots; 5.7 m/s)
Visibility: 6 or more miles (10+ km)
Ceiling: ceiling and visibility are OK
Clouds: unknown
Weather: no significant weather observed at this time

METAR text: LFRJ 231700Z AUTO 05012KT CAVOK 12/08 Q1028
Conditions at: LFRJ (LANDIVISIAU (NAV, FR) observed 1700 UTC 23 March 2019
Temperature: 12.0°C (54°F)
Dewpoint: 8.0°C (46°F) [RH = 76%]
Pressure (altimeter): 30.35 inches Hg (1028.0 mb)
Winds: from the NE (50 degrees) at 14 MPH (12 knots; 6.2 m/s)
Visibility: 6 or more miles (10+ km)
Ceiling: ceiling and visibility are OK
Clouds: unknown
Weather: no significant weather observed at this time

METAR text: LFRJ 231630Z AUTO 04014KT 9999 FEW044 12/08 Q1028
Conditions at: LFRJ (LANDIVISIAU (NAV, FR) observed 1630 UTC 23 March 2019
Temperature: 12.0°C (54°F)
Dewpoint: 8.0°C (46°F) [RH = 76%]
Pressure (altimeter): 30.35 inches Hg (1028.0 mb)
Winds: from the NE (40 degrees) at 16 MPH (14 knots; 7.2 m/s)
Visibility: 6 or more miles (10+ km)
Ceiling: at least 12,000 feet AGL
Clouds: few clouds at 4400 feet AGL
Weather: no significant weather observed at this time

METAR text: LFRJ 231600Z AUTO 05011KT 9999 FEW045 14/09 Q1028
Conditions at: LFRJ (LANDIVISIAU (NAV, FR) observed 1600 UTC 23 March 2019
Temperature: 14.0°C (57°F)
Dewpoint: 9.0°C (48°F) [RH = 72%]
Pressure (altimeter): 30.35 inches Hg (1028.0 mb)
Winds: from the NE (50 degrees) at 13 MPH (11 knots; 5.7 m/s)
Visibility: 6 or more miles (10+ km)
Ceiling: at least 12,000 feet AGL
Clouds: few clouds at 4500 feet AGL
Weather: no significant weather observed at this time

METAR text: LFRJ 231530Z AUTO 05010KT 9999 SCT045 14/09 Q1028
Conditions at: LFRJ (LANDIVISIAU (NAV, FR) observed 1530 UTC 23 March 2019
Temperature: 14.0°C (57°F)
Dewpoint: 9.0°C (48°F) [RH = 72%]
Pressure (altimeter): 30.35 inches Hg (1028.0 mb)
Winds: from the NE (50 degrees) at 12 MPH (10 knots; 5.1 m/s)
Visibility: 6 or more miles (10+ km)
Ceiling: at least 12,000 feet AGL
Clouds: scattered clouds at 4500 feet AGL
Weather: no significant weather observed at this time

METAR text: LFRJ 231500Z AUTO 04011KT 9999 SCT041 14/09 Q1028
Conditions at: LFRJ (LANDIVISIAU (NAV, FR) observed 1500 UTC 23 March 2019
Temperature: 14.0°C (57°F)
Dewpoint: 9.0°C (48°F) [RH = 72%]
Pressure (altimeter): 30.35 inches Hg (1028.0 mb)
Winds: from the NE (40 degrees) at 13 MPH (11 knots; 5.7 m/s)
Visibility: 6 or more miles (10+ km)
Ceiling: at least 12,000 feet AGL
Clouds: scattered clouds at 4100 feet AGL
Weather: no significant weather observed at this time

METAR text: LFRJ 231430Z AUTO 04012KT 9999 FEW023 SCT036 BKN043 14/10 Q1028
Conditions at: LFRJ (LANDIVISIAU (NAV, FR) observed 1430 UTC 23 March 2019
Temperature: 14.0°C (57°F)
Dewpoint: 10.0°C (50°F) [RH = 77%]
Pressure (altimeter): 30.35 inches Hg (1028.0 mb)
Winds: from the NE (40 degrees) at 14 MPH (12 knots; 6.2 m/s)
Visibility: 6 or more miles (10+ km)
Ceiling: 4300 feet AGL
Clouds: few clouds at 2300 feet AGL
scattered clouds at 3600 feet AGL
broken clouds at 4300 feet AGL
Weather: no significant weather observed at this time

METAR text: LFRJ 231400Z AUTO 05010KT 010V070 9999 FEW028 SCT034 BKN043 15/09 Q1028
Conditions at: LFRJ (LANDIVISIAU (NAV, FR) observed 1400 UTC 23 March 2019
Temperature: 15.0°C (59°F)
Dewpoint: 9.0°C (48°F) [RH = 67%]
Pressure (altimeter): 30.35 inches Hg (1028.0 mb)
Winds: from the NE (50 degrees) at 12 MPH (10 knots; 5.1 m/s)
Visibility: 6 or more miles (10+ km)
Ceiling: 4300 feet AGL
Clouds: few clouds at 2800 feet AGL
scattered clouds at 3400 feet AGL
broken clouds at 4300 feet AGL
Weather: no significant weather observed at this time

METAR text: LFRJ 231330Z AUTO 06010KT 9999 FEW029 SCT035 BKN043 14/08 Q1029
Conditions at: LFRJ (LANDIVISIAU (NAV, FR) observed 1330 UTC 23 March 2019
Temperature: 14.0°C (57°F)
Dewpoint: 8.0°C (46°F) [RH = 67%]
Pressure (altimeter): 30.38 inches Hg (1029.0 mb)
Winds: from the ENE (60 degrees) at 12 MPH (10 knots; 5.1 m/s)
Visibility: 6 or more miles (10+ km)
Ceiling: 4300 feet AGL
Clouds: few clouds at 2900 feet AGL
scattered clouds at 3500 feet AGL
broken clouds at 4300 feet AGL
Weather: no significant weather observed at this time

METAR text: LFRJ 231300Z AUTO 05010KT 9999 FEW024 SCT042 14/09 Q1029
Conditions at: LFRJ (LANDIVISIAU (NAV, FR) observed 1300 UTC 23 March 2019
Temperature: 14.0°C (57°F)
Dewpoint: 9.0°C (48°F) [RH = 72%]
Pressure (altimeter): 30.38 inches Hg (1029.0 mb)
Winds: from the NE (50 degrees) at 12 MPH (10 knots; 5.1 m/s)
Visibility: 6 or more miles (10+ km)
Ceiling: at least 12,000 feet AGL
Clouds: few clouds at 2400 feet AGL
scattered clouds at 4200 feet AGL
Weather: no significant weather observed at this time

METAR text: LFRJ 231230Z AUTO 06009KT 030V100 9999 FEW021 14/09 Q1029
Conditions at: LFRJ (LANDIVISIAU (NAV, FR) observed 1230 UTC 23 March 2019
Temperature: 14.0°C (57°F)
Dewpoint: 9.0°C (48°F) [RH = 72%]
Pressure (altimeter): 30.38 inches Hg (1029.0 mb)
Winds: from the ENE (60 degrees) at 10 MPH (9 knots; 4.6 m/s)
Visibility: 6 or more miles (10+ km)
Ceiling: at least 12,000 feet AGL
Clouds: few clouds at 2100 feet AGL
Weather: no significant weather observed at this time

METAR text: LFRJ 231200Z AUTO 08010KT 040V110 9999 SCT018 13/09 Q1029
Conditions at: LFRJ (LANDIVISIAU (NAV, FR) observed 1200 UTC 23 March 2019
Temperature: 13.0°C (55°F)
Dewpoint: 9.0°C (48°F) [RH = 77%]
Pressure (altimeter): 30.38 inches Hg (1029.0 mb)
Winds: from the E (80 degrees) at 12 MPH (10 knots; 5.1 m/s)
Visibility: 6 or more miles (10+ km)
Ceiling: at least 12,000 feet AGL
Clouds: scattered clouds at 1800 feet AGL
Weather: no significant weather observed at this time

METAR text: LFRJ 231130Z AUTO 07010KT 9999 FEW015 12/09 Q1030
Conditions at: LFRJ (LANDIVISIAU (NAV, FR) observed 1130 UTC 23 March 2019
Temperature: 12.0°C (54°F)
Dewpoint: 9.0°C (48°F) [RH = 82%]
Pressure (altimeter): 30.41 inches Hg (1030.0 mb)
Winds: from the ENE (70 degrees) at 12 MPH (10 knots; 5.1 m/s)
Visibility: 6 or more miles (10+ km)
Ceiling: at least 12,000 feet AGL
Clouds: few clouds at 1500 feet AGL
Weather: no significant weather observed at this time

METAR text: LFRJ 231100Z AUTO 07009KT 030V100 9999 SCT011 SCT250 11/08 Q1030
Conditions at: LFRJ (LANDIVISIAU (NAV, FR) observed 1100 UTC 23 March 2019
Temperature: 11.0°C (52°F)
Dewpoint: 8.0°C (46°F) [RH = 82%]
Pressure (altimeter): 30.41 inches Hg (1030.0 mb)
Winds: from the ENE (70 degrees) at 10 MPH (9 knots; 4.6 m/s)
Visibility: 6 or more miles (10+ km)
Ceiling: at least 12,000 feet AGL
Clouds: scattered clouds at 1100 feet AGL
scattered clouds at 25000 feet AGL
Weather: no significant weather observed at this time

METAR text: LFRJ 231030Z AUTO 05009KT 8000 BKN007 10/09 Q1030
Conditions at: LFRJ (LANDIVISIAU (NAV, FR) observed 1030 UTC 23 March 2019
Temperature: 10.0°C (50°F)
Dewpoint: 9.0°C (48°F) [RH = 93%]
Pressure (altimeter): 30.41 inches Hg (1030.0 mb)
Winds: from the NE (50 degrees) at 10 MPH (9 knots; 4.6 m/s)
Visibility: 5 miles ( 8 km)
Ceiling: 700 feet AGL
Clouds: broken clouds at 700 feet AGL
Weather: no significant weather observed at this time

METAR text: LFRJ 231000Z AUTO 05010KT 020V080 5000 BR OVC004 09/08 Q1030
Conditions at: LFRJ (LANDIVISIAU (NAV, FR) observed 1000 UTC 23 March 2019
Temperature: 9.0°C (48°F)
Dewpoint: 8.0°C (46°F) [RH = 93%]
Pressure (altimeter): 30.41 inches Hg (1030.0 mb)
Winds: from the NE (50 degrees) at 12 MPH (10 knots; 5.1 m/s)
Visibility: 3 miles ( 5 km)
Ceiling: 400 feet AGL
Clouds: overcast cloud deck at 400 feet AGL
Weather: BR  (mist)

METAR text: LFRJ 230930Z AUTO 03008KT 5000 BR BKN005 09/08 Q1030
Conditions at: LFRJ (LANDIVISIAU (NAV, FR) observed 0930 UTC 23 March 2019
Temperature: 9.0°C (48°F)
Dewpoint: 8.0°C (46°F) [RH = 93%]
Pressure (altimeter): 30.41 inches Hg (1030.0 mb)
Winds: from the NNE (30 degrees) at 9 MPH (8 knots; 4.1 m/s)
Visibility: 3 miles ( 5 km)
Ceiling: 500 feet AGL
Clouds: broken clouds at 500 feet AGL
Weather: BR  (mist)

METAR text: LFRJ 230900Z AUTO 03008KT 3200 BR BKN002 08/08 Q1030
Conditions at: LFRJ (LANDIVISIAU (NAV, FR) observed 0900 UTC 23 March 2019
Temperature: 8.0°C (46°F)
Dewpoint: 8.0°C (46°F) [RH = 100%]
Pressure (altimeter): 30.41 inches Hg (1030.0 mb)
Winds: from the NNE (30 degrees) at 9 MPH (8 knots; 4.1 m/s)
Visibility: 1.99 miles (3.20 km)
Ceiling: 200 feet AGL
Clouds: broken clouds at 200 feet AGL
Weather: BR  (mist)

METAR text: LFRJ 230830Z AUTO 04006KT 5000 BR NSC 09/08 Q1030
Conditions at: LFRJ (LANDIVISIAU (NAV, FR) observed 0830 UTC 23 March 2019
Temperature: 9.0°C (48°F)
Dewpoint: 8.0°C (46°F) [RH = 93%]
Pressure (altimeter): 30.41 inches Hg (1030.0 mb)
Winds: from the NE (40 degrees) at 7 MPH (6 knots; 3.1 m/s)
Visibility: 3 miles ( 5 km)
Ceiling: at least 12,000 feet AGL
Clouds: sky clear below 12,000 feet AGL
Weather: BR  (mist)

METAR text: LFRJ 230800Z AUTO 06003KT 030V090 4100 BR FEW001 08/08 Q1030
Conditions at: LFRJ (LANDIVISIAU (NAV, FR) observed 0800 UTC 23 March 2019
Temperature: 8.0°C (46°F)
Dewpoint: 8.0°C (46°F) [RH = 100%]
Pressure (altimeter): 30.41 inches Hg (1030.0 mb)
Winds: from the ENE (60 degrees) at 3 MPH (3 knots; 1.5 m/s)
Visibility: 2.55 miles (4.10 km)
Ceiling: at least 12,000 feet AGL
Clouds: few clouds at 100 feet AGL
Weather: BR  (mist)

METAR text: LFRJ 230730Z AUTO 10004KT 0450 0400 R26/0700U R08/1000U FG VV/// 06/06 Q1030
Conditions at: LFRJ (LANDIVISIAU (NAV, FR) observed 0730 UTC 23 March 2019
Temperature: 6.0°C (43°F)
Dewpoint: 6.0°C (43°F) [RH = 100%]
Pressure (altimeter): 30.41 inches Hg (1030.0 mb)
Winds: from the E (100 degrees) at 5 MPH (4 knots; 2.1 m/s)
Visibility: 0.28 miles (0.45 km)
Ceiling: indefinite ceiling with vertical visibility of 0 feet AGL
Clouds: obscured sky
Weather: FG  (fog)

METAR text: LFRJ 230700Z AUTO 11005KT 0350 0300 R26/0550U R08/0400D FG VV/// 06/06 Q1029
Conditions at: LFRJ (LANDIVISIAU (NAV, FR) observed 0700 UTC 23 March 2019
Temperature: 6.0°C (43°F)
Dewpoint: 6.0°C (43°F) [RH = 100%]
Pressure (altimeter): 30.38 inches Hg (1029.0 mb)
Winds: from the ESE (110 degrees) at 6 MPH (5 knots; 2.6 m/s)
Visibility: 0.22 miles (0.35 km)
Ceiling: indefinite ceiling with vertical visibility of 0 feet AGL
Clouds: obscured sky
Weather: FG  (fog)

METAR text: LFRJ 230630Z AUTO 10005KT 1300 0650 R26/1500D R08/1100U BCFG FEW003 06/06 Q1029
Conditions at: LFRJ (LANDIVISIAU (NAV, FR) observed 0630 UTC 23 March 2019
Temperature: 6.0°C (43°F)
Dewpoint: 6.0°C (43°F) [RH = 100%]
Pressure (altimeter): 30.38 inches Hg (1029.0 mb)
Winds: from the E (100 degrees) at 6 MPH (5 knots; 2.6 m/s)
Visibility: 0.81 miles (1.30 km)
Ceiling: at least 12,000 feet AGL
Clouds: few clouds at 300 feet AGL
Weather: BCFG  (patches of fog)

METAR text: LFRJ 230600Z AUTO 07005KT 1900 0400 R26/P2000 R08/0500D BCFG FEW002 07/07 Q1029
Conditions at: LFRJ (LANDIVISIAU (NAV, FR) observed 0600 UTC 23 March 2019
Temperature: 7.0°C (45°F)
Dewpoint: 7.0°C (45°F) [RH = 100%]
Pressure (altimeter): 30.38 inches Hg (1029.0 mb)
Winds: from the ENE (70 degrees) at 6 MPH (5 knots; 2.6 m/s)
Visibility: 1.18 miles (1.90 km)
Ceiling: at least 12,000 feet AGL
Clouds: few clouds at 200 feet AGL
Weather: BCFG  (patches of fog)

METAR text: LFRJ 230530Z AUTO 08006KT 1300 0350 R26/P2000 R08/0375N BCFG VV/// 06/06 Q1029
Conditions at: LFRJ (LANDIVISIAU (NAV, FR) observed 0530 UTC 23 March 2019
Temperature: 6.0°C (43°F)
Dewpoint: 6.0°C (43°F) [RH = 100%]
Pressure (altimeter): 30.38 inches Hg (1029.0 mb)
Winds: from the E (80 degrees) at 7 MPH (6 knots; 3.1 m/s)
Visibility: 0.81 miles (1.30 km)
Ceiling: indefinite ceiling with vertical visibility of 0 feet AGL
Clouds: obscured sky
Weather: BCFG  (patches of fog)

METAR text: LFRJ 230500Z AUTO 05003KT 0400 0300 R26/0700U R08/0400N FG VV/// 06/06 Q1029
Conditions at: LFRJ (LANDIVISIAU (NAV, FR) observed 0500 UTC 23 March 2019
Temperature: 6.0°C (43°F)
Dewpoint: 6.0°C (43°F) [RH = 100%]
Pressure (altimeter): 30.38 inches Hg (1029.0 mb)
Winds: from the NE (50 degrees) at 3 MPH (3 knots; 1.5 m/s)
Visibility: 0.25 miles (0.40 km)
Ceiling: indefinite ceiling with vertical visibility of 0 feet AGL
Clouds: obscured sky
Weather: FG  (fog)

METAR text: LFRJ 230430Z AUTO 05004KT 0450 0350 R26/0500D R08/0800U FG VV/// 05/05 Q1029
Conditions at: LFRJ (LANDIVISIAU (NAV, FR) observed 0430 UTC 23 March 2019
Temperature: 5.0°C (41°F)
Dewpoint: 5.0°C (41°F) [RH = 100%]
Pressure (altimeter): 30.38 inches Hg (1029.0 mb)
Winds: from the NE (50 degrees) at 5 MPH (4 knots; 2.1 m/s)
Visibility: 0.28 miles (0.45 km)
Ceiling: indefinite ceiling with vertical visibility of 0 feet AGL
Clouds: obscured sky
Weather: FG  (fog)

METAR text: LFRJ 230400Z AUTO 01004KT 0400 0350 R26/0900U R08/0600U FG VV/// 04/04 Q1029
Conditions at: LFRJ (LANDIVISIAU (NAV, FR) observed 0400 UTC 23 March 2019
Temperature: 4.0°C (39°F)
Dewpoint: 4.0°C (39°F) [RH = 100%]
Pressure (altimeter): 30.38 inches Hg (1029.0 mb)
Winds: from the N (10 degrees) at 5 MPH (4 knots; 2.1 m/s)
Visibility: 0.25 miles (0.40 km)
Ceiling: indefinite ceiling with vertical visibility of 0 feet AGL
Clouds: obscured sky
Weather: FG  (fog)

METAR text: LFRJ 230330Z AUTO 35003KT 0550 0400 R26/1100U R08/0450D FG VV/// 04/04 Q1029
Conditions at: LFRJ (LANDIVISIAU (NAV, FR) observed 0330 UTC 23 March 2019
Temperature: 4.0°C (39°F)
Dewpoint: 4.0°C (39°F) [RH = 100%]
Pressure (altimeter): 30.38 inches Hg (1029.0 mb)
Winds: from the N (350 degrees) at 3 MPH (3 knots; 1.5 m/s)
Visibility: 0.34 miles (0.55 km)
Ceiling: indefinite ceiling with vertical visibility of 0 feet AGL
Clouds: obscured sky
Weather: FG  (fog)

METAR text: LFRJ 230300Z AUTO 09005KT 4700 2100 R08/0800U BR VV/// 06/06 Q1029
Conditions at: LFRJ (LANDIVISIAU (NAV, FR) observed 0300 UTC 23 March 2019
Temperature: 6.0°C (43°F)
Dewpoint: 6.0°C (43°F) [RH = 100%]
Pressure (altimeter): 30.38 inches Hg (1029.0 mb)
Winds: from the E (90 degrees) at 6 MPH (5 knots; 2.6 m/s)
Visibility: 2.92 miles (4.70 km)
Ceiling: indefinite ceiling with vertical visibility of 0 feet AGL
Clouds: obscured sky
Weather: BR  (mist)

METAR text: LFRJ 230230Z AUTO 04004KT 0450 0400 R26/1100U R08/0500N FG VV/// 06/06 Q1029
Conditions at: LFRJ (LANDIVISIAU (NAV, FR) observed 0230 UTC 23 March 2019
Temperature: 6.0°C (43°F)
Dewpoint: 6.0°C (43°F) [RH = 100%]
Pressure (altimeter): 30.38 inches Hg (1029.0 mb)
Winds: from the NE (40 degrees) at 5 MPH (4 knots; 2.1 m/s)
Visibility: 0.28 miles (0.45 km)
Ceiling: indefinite ceiling with vertical visibility of 0 feet AGL
Clouds: obscured sky
Weather: FG  (fog)

METAR text: LFRJ 230200Z AUTO 09003KT 0300 0250 R26/0450D R08/0325N FG VV/// 06/06 Q1029
Conditions at: LFRJ (LANDIVISIAU (NAV, FR) observed 0200 UTC 23 March 2019
Temperature: 6.0°C (43°F)
Dewpoint: 6.0°C (43°F) [RH = 100%]
Pressure (altimeter): 30.38 inches Hg (1029.0 mb)
Winds: from the E (90 degrees) at 3 MPH (3 knots; 1.5 m/s)
Visibility: 0.19 miles (0.31 km)
Ceiling: indefinite ceiling with vertical visibility of 0 feet AGL
Clouds: obscured sky
Weather: FG  (fog)

METAR text: LFRJ 230130Z AUTO 04003KT 0250 0200 R26/0325N R08/0550U FG VV/// 05/05 Q1029
Conditions at: LFRJ (LANDIVISIAU (NAV, FR) observed 0130 UTC 23 March 2019
Temperature: 5.0°C (41°F)
Dewpoint: 5.0°C (41°F) [RH = 100%]
Pressure (altimeter): 30.38 inches Hg (1029.0 mb)
Winds: from the NE (40 degrees) at 3 MPH (3 knots; 1.5 m/s)
Visibility: 0.16 miles (0.26 km)
Ceiling: indefinite ceiling with vertical visibility of 0 feet AGL
Clouds: obscured sky
Weather: FG  (fog)

METAR text: LFRJ 230100Z AUTO 05001KT 0300 0250 R26/0500N R08/0325U FG VV/// 07/07 Q1029
Conditions at: LFRJ (LANDIVISIAU (NAV, FR) observed 0100 UTC 23 March 2019
Temperature: 7.0°C (45°F)
Dewpoint: 7.0°C (45°F) [RH = 100%]
Pressure (altimeter): 30.38 inches Hg (1029.0 mb)
Winds: from the NE (50 degrees) at 1 MPH (1 knots; 0.5 m/s)
Visibility: 0.19 miles (0.31 km)
Ceiling: indefinite ceiling with vertical visibility of 0 feet AGL
Clouds: obscured sky
Weather: FG  (fog)

METAR text: LFRJ 230030Z AUTO 07003KT 0250 0200 R26/0300N R08/0275N FG VV/// 08/08 Q1029
Conditions at: LFRJ (LANDIVISIAU (NAV, FR) observed 0030 UTC 23 March 2019
Temperature: 8.0°C (46°F)
Dewpoint: 8.0°C (46°F) [RH = 100%]
Pressure (altimeter): 30.38 inches Hg (1029.0 mb)
Winds: from the ENE (70 degrees) at 3 MPH (3 knots; 1.5 m/s)
Visibility: 0.16 miles (0.26 km)
Ceiling: indefinite ceiling with vertical visibility of 0 feet AGL
Clouds: obscured sky
Weather: FG  (fog)

METAR text: LFRJ 230000Z AUTO 02004KT 0650 0450 R26/0450D R08/P2000 FG VV/// 09/08 Q1029
Conditions at: LFRJ (LANDIVISIAU (NAV, FR) observed 0000 UTC 23 March 2019
Temperature: 9.0°C (48°F)
Dewpoint: 8.0°C (46°F) [RH = 93%]
Pressure (altimeter): 30.38 inches Hg (1029.0 mb)
Winds: from the NNE (20 degrees) at 5 MPH (4 knots; 2.1 m/s)
Visibility: 0.40 miles (0.64 km)
Ceiling: indefinite ceiling with vertical visibility of 0 feet AGL
Clouds: obscured sky
Weather: FG  (fog)

METAR text: LFRJ 222330Z AUTO 01004KT 0250 0200 R26/0325N R08/0300N FG VV/// 08/08 Q1029
Conditions at: LFRJ (LANDIVISIAU (NAV, FR) observed 2330 UTC 22 March 2019
Temperature: 8.0°C (46°F)
Dewpoint: 8.0°C (46°F) [RH = 100%]
Pressure (altimeter): 30.38 inches Hg (1029.0 mb)
Winds: from the N (10 degrees) at 5 MPH (4 knots; 2.1 m/s)
Visibility: 0.16 miles (0.26 km)
Ceiling: indefinite ceiling with vertical visibility of 0 feet AGL
Clouds: obscured sky
Weather: FG  (fog)

METAR text: LFRJ 222300Z AUTO 03004KT 0350 0300 R26/1100U R08/0400N FG VV/// 07/07 Q1029
Conditions at: LFRJ (LANDIVISIAU (NAV, FR) observed 2300 UTC 22 March 2019
Temperature: 7.0°C (45°F)
Dewpoint: 7.0°C (45°F) [RH = 100%]
Pressure (altimeter): 30.38 inches Hg (1029.0 mb)
Winds: from the NNE (30 degrees) at 5 MPH (4 knots; 2.1 m/s)
Visibility: 0.22 miles (0.35 km)
Ceiling: indefinite ceiling with vertical visibility of 0 feet AGL
Clouds: obscured sky
Weather: FG  (fog)

METAR text: LFRJ 222230Z AUTO 02002KT 0500 0250 R26/1300U R08/0700D FG FEW004 BKN027 BKN038 07/07 Q1029
Conditions at: LFRJ (LANDIVISIAU (NAV, FR) observed 2230 UTC 22 March 2019
Temperature: 7.0°C (45°F)
Dewpoint: 7.0°C (45°F) [RH = 100%]
Pressure (altimeter): 30.38 inches Hg (1029.0 mb)
Winds: from the NNE (20 degrees) at 2 MPH (2 knots; 1.0 m/s)
Visibility: 0.31 miles (0.50 km)
Ceiling: 2700 feet AGL
Clouds: few clouds at 400 feet AGL
broken clouds at 2700 feet AGL
broken clouds at 3800 feet AGL
Weather: FG  (fog)

METAR text: LFRJ 222200Z AUTO 35002KT 0350 0200 R26/0900U R08/0600D FG FEW005 07/06 Q1029
Conditions at: LFRJ (LANDIVISIAU (NAV, FR) observed 2200 UTC 22 March 2019
Temperature: 7.0°C (45°F)
Dewpoint: 6.0°C (43°F) [RH = 93%]
Pressure (altimeter): 30.38 inches Hg (1029.0 mb)
Winds: from the N (350 degrees) at 2 MPH (2 knots; 1.0 m/s)
Visibility: 0.22 miles (0.35 km)
Ceiling: at least 12,000 feet AGL
Clouds: few clouds at 500 feet AGL
Weather: FG  (fog)

METAR text: LFRJ 222130Z AUTO 00000KT 1200 0250 R26/1300D R08/P2000U BCFG FEW005 08/07 Q1029
Conditions at: LFRJ (LANDIVISIAU (NAV, FR) observed 2130 UTC 22 March 2019
Temperature: 8.0°C (46°F)
Dewpoint: 7.0°C (45°F) [RH = 93%]
Pressure (altimeter): 30.38 inches Hg (1029.0 mb)
Winds: calm
Visibility: 0.75 miles (1.21 km)
Ceiling: at least 12,000 feet AGL
Clouds: few clouds at 500 feet AGL
Weather: BCFG  (patches of fog)